Terminal Aerodrome Forecast
Issued by NWS Tiyan, Guam

Home | Current Version | Previous Version | Text Only | Print | Product List | Glossary On
Versions: 1 2 3 4 5 6 7 8 9 10 11 12 13 14 15 16
000
FTPQ31 PGUM 210524
TAFGUM
TAF
PGUM 210524Z 2106/2212 36011KT P6SM FEW020 SCT150
     FM211200 34013KT P6SM VCSH SCT018 BKN120
     FM220100 34013G23KT 6SM SHRA SCT015 BKN030 BKN090=

USA.gov is the U.S. government's official web portal to all federal, state and local government web resources and services.